sensor_id;sensor_type;location;lat;lon;timestamp;temperature;humidity
2611;DHT22;5612;51.134;17.058;2022-11-21T00:01:33;-2.10;1.00
2611;DHT22;5612;51.134;17.058;2022-11-21T00:04:02;-2.10;99.90
2611;DHT22;5612;51.134;17.058;2022-11-21T00:06:31;-2.10;1.00
2611;DHT22;5612;51.134;17.058;2022-11-21T00:09:00;-2.10;1.00
2611;DHT22;5612;51.134;17.058;2022-11-21T00:11:28;-2.10;1.00
2611;DHT22;5612;51.134;17.058;2022-11-21T00:13:59;-2.20;99.90
2611;DHT22;5612;51.134;17.058;2022-11-21T00:16:27;-2.30;1.00
2611;DHT22;5612;51.134;17.058;2022-11-21T00:18:57;-2.40;99.90
2611;DHT22;5612;51.134;17.058;2022-11-21T00:21:25;-2.40;1.00
2611;DHT22;5612;51.134;17.058;2022-11-21T00:23:54;-2.30;1.00
2611;DHT22;5612;51.134;17.058;2022-11-21T00:26:23;-2.30;1.00
2611;DHT22;5612;51.134;17.058;2022-11-21T00:28:51;-2.30;1.00
2611;DHT22;5612;51.134;17.058;2022-11-21T00:31:22;-2.20;1.00
2611;DHT22;5612;51.134;17.058;2022-11-21T00:33:52;-2.20;1.00
2611;DHT22;5612;51.134;17.058;2022-11-21T00:36:21;-2.30;1.00
2611;DHT22;5612;51.134;17.058;2022-11-21T00:38:50;-2.30;1.00
2611;DHT22;5612;51.134;17.058;2022-11-21T00:41:18;-2.30;1.00
2611;DHT22;5612;51.134;17.058;2022-11-21T00:43:47;-2.30;1.00
2611;DHT22;5612;51.134;17.058;2022-11-21T00:46:16;-2.30;1.00
2611;DHT22;5612;51.134;17.058;2022-11-21T00:48:46;-2.30;1.00
2611;DHT22;5612;51.134;17.058;2022-11-21T00:51:15;-2.30;1.00
2611;DHT22;5612;51.134;17.058;2022-11-21T00:53:43;-2.30;1.00
2611;DHT22;5612;51.134;17.058;2022-11-21T00:56:12;-2.20;1.00
2611;DHT22;5612;51.134;17.058;2022-11-21T00:58:41;-2.20;1.00
2611;DHT22;5612;51.134;17.058;2022-11-21T01:01:11;-2.20;1.00
2611;DHT22;5612;51.134;17.058;2022-11-21T01:03:41;-2.20;1.00
2611;DHT22;5612;51.134;17.058;2022-11-21T01:06:14;-2.20;1.00
2611;DHT22;5612;51.134;17.058;2022-11-21T01:08:43;-2.10;1.00
2611;DHT22;5612;51.134;17.058;2022-11-21T01:11:14;-2.00;1.00
2611;DHT22;5612;51.134;17.058;2022-11-21T01:13:44;-1.90;1.00
2611;DHT22;5612;51.134;17.058;2022-11-21T01:16:14;-1.80;1.00
2611;DHT22;5612;51.134;17.058;2022-11-21T01:18:43;-1.80;1.00
2611;DHT22;5612;51.134;17.058;2022-11-21T01:21:15;-1.70;99.90
2611;DHT22;5612;51.134;17.058;2022-11-21T01:23:44;-1.60;99.90
2611;DHT22;5612;51.134;17.058;2022-11-21T01:26:15;-1.60;99.90
2611;DHT22;5612;51.134;17.058;2022-11-21T01:28:44;-1.60;99.90
2611;DHT22;5612;51.134;17.058;2022-11-21T01:31:14;-1.50;99.90
2611;DHT22;5612;51.134;17.058;2022-11-21T01:33:43;-1.40;43.60
2611;DHT22;5612;51.134;17.058;2022-11-21T01:36:16;-1.30;1.00
2611;DHT22;5612;51.134;17.058;2022-11-21T01:38:46;-1.10;1.00
2611;DHT22;5612;51.134;17.058;2022-11-21T01:41:18;-1.00;99.90
2611;DHT22;5612;51.134;17.058;2022-11-21T01:43:47;-0.90;99.90
2611;DHT22;5612;51.134;17.058;2022-11-21T01:46:17;-0.90;99.90
2611;DHT22;5612;51.134;17.058;2022-11-21T01:48:49;-0.90;1.00
2611;DHT22;5612;51.134;17.058;2022-11-21T01:51:24;-0.90;1.00
2611;DHT22;5612;51.134;17.058;2022-11-21T01:53:58;-1.00;1.00
2611;DHT22;5612;51.134;17.058;2022-11-21T01:56:31;-1.10;99.90
2611;DHT22;5612;51.134;17.058;2022-11-21T01:59:02;-1.00;99.90
2611;DHT22;5612;51.134;17.058;2022-11-21T02:01:34;-0.90;99.90
2611;DHT22;5612;51.134;17.058;2022-11-21T02:04:04;-0.80;1.00
2611;DHT22;5612;51.134;17.058;2022-11-21T02:06:35;-0.80;99.90
2611;DHT22;5612;51.134;17.058;2022-11-21T02:09:06;-0.90;1.00
2611;DHT22;5612;51.134;17.058;2022-11-21T02:11:39;-0.90;99.90
2611;DHT22;5612;51.134;17.058;2022-11-21T02:14:10;-1.00;14.00
2611;DHT22;5612;51.134;17.058;2022-11-21T02:16:39;-1.00;99.90
2611;DHT22;5612;51.134;17.058;2022-11-21T02:19:13;-0.80;99.90
2611;DHT22;5612;51.134;17.058;2022-11-21T02:21:47;-0.80;1.00
2611;DHT22;5612;51.134;17.058;2022-11-21T02:24:23;-0.60;99.90
2611;DHT22;5612;51.134;17.058;2022-11-21T02:26:56;-0.50;99.90
2611;DHT22;5612;51.134;17.058;2022-11-21T02:29:25;-0.50;99.90
2611;DHT22;5612;51.134;17.058;2022-11-21T02:31:57;-0.40;7.80
2611;DHT22;5612;51.134;17.058;2022-11-21T02:34:26;-0.40;24.20
2611;DHT22;5612;51.134;17.058;2022-11-21T02:36:56;-0.50;1.00
2611;DHT22;5612;51.134;17.058;2022-11-21T02:39:28;-0.40;94.30
2611;DHT22;5612;51.134;17.058;2022-11-21T02:42:02;-0.40;99.90
2611;DHT22;5612;51.134;17.058;2022-11-21T02:44:39;-0.40;1.00
2611;DHT22;5612;51.134;17.058;2022-11-21T02:47:08;-0.40;99.90
2611;DHT22;5612;51.134;17.058;2022-11-21T02:49:41;-0.20;1.00
2611;DHT22;5612;51.134;17.058;2022-11-21T02:52:12;-0.10;1.00
2611;DHT22;5612;51.134;17.058;2022-11-21T02:54:41;0.00;99.90
2611;DHT22;5612;51.134;17.058;2022-11-21T02:57:11;-0.10;1.00
2611;DHT22;5612;51.134;17.058;2022-11-21T02:59:40;-0.30;1.00
2611;DHT22;5612;51.134;17.058;2022-11-21T03:02:09;-0.40;20.20
2611;DHT22;5612;51.134;17.058;2022-11-21T03:04:37;-0.30;99.90
2611;DHT22;5612;51.134;17.058;2022-11-21T03:07:06;-0.30;99.90
2611;DHT22;5612;51.134;17.058;2022-11-21T03:09:35;-0.30;1.00
2611;DHT22;5612;51.134;17.058;2022-11-21T03:12:07;-0.40;1.00
2611;DHT22;5612;51.134;17.058;2022-11-21T03:14:37;-0.50;99.90
2611;DHT22;5612;51.134;17.058;2022-11-21T03:17:06;-0.40;1.00
2611;DHT22;5612;51.134;17.058;2022-11-21T03:19:35;-0.40;1.00
2611;DHT22;5612;51.134;17.058;2022-11-21T03:22:03;-0.40;1.00
2611;DHT22;5612;51.134;17.058;2022-11-21T03:24:32;-0.40;99.90
2611;DHT22;5612;51.134;17.058;2022-11-21T03:27:01;-0.30;99.90
2611;DHT22;5612;51.134;17.058;2022-11-21T03:29:30;-0.30;77.40
2611;DHT22;5612;51.134;17.058;2022-11-21T03:32:00;-0.30;99.90
2611;DHT22;5612;51.134;17.058;2022-11-21T03:34:29;-0.10;90.50
2611;DHT22;5612;51.134;17.058;2022-11-21T03:36:57;-0.10;1.00
2611;DHT22;5612;51.134;17.058;2022-11-21T03:39:26;-0.10;1.00
2611;DHT22;5612;51.134;17.058;2022-11-21T03:41:55;-0.10;1.00
2611;DHT22;5612;51.134;17.058;2022-11-21T03:44:23;-0.20;99.90
2611;DHT22;5612;51.134;17.058;2022-11-21T03:46:53;-0.10;99.90
2611;DHT22;5612;51.134;17.058;2022-11-21T03:49:23;-0.20;99.90
2611;DHT22;5612;51.134;17.058;2022-11-21T03:51:51;-0.20;1.00
2611;DHT22;5612;51.134;17.058;2022-11-21T03:54:20;-0.20;1.00
2611;DHT22;5612;51.134;17.058;2022-11-21T03:56:48;-0.20;99.90
2611;DHT22;5612;51.134;17.058;2022-11-21T03:59:18;-0.10;99.90
2611;DHT22;5612;51.134;17.058;2022-11-21T04:01:46;0.00;99.90
2611;DHT22;5612;51.134;17.058;2022-11-21T04:04:15;0.00;1.00
2611;DHT22;5612;51.134;17.058;2022-11-21T04:06:45;0.00;99.90
2611;DHT22;5612;51.134;17.058;2022-11-21T04:09:14;0.00;99.90
2611;DHT22;5612;51.134;17.058;2022-11-21T04:11:43;0.10;99.90
2611;DHT22;5612;51.134;17.058;2022-11-21T04:14:11;0.00;99.90
2611;DHT22;5612;51.134;17.058;2022-11-21T04:16:40;0.10;1.00
2611;DHT22;5612;51.134;17.058;2022-11-21T04:19:09;0.10;99.90
2611;DHT22;5612;51.134;17.058;2022-11-21T04:21:37;0.10;99.90
2611;DHT22;5612;51.134;17.058;2022-11-21T04:24:08;0.10;1.00
2611;DHT22;5612;51.134;17.058;2022-11-21T04:26:37;0.20;99.90
2611;DHT22;5612;51.134;17.058;2022-11-21T04:29:05;0.20;34.90
2611;DHT22;5612;51.134;17.058;2022-11-21T04:31:34;0.20;99.90
2611;DHT22;5612;51.134;17.058;2022-11-21T04:34:03;0.30;99.90
2611;DHT22;5612;51.134;17.058;2022-11-21T04:36:32;0.20;1.00
2611;DHT22;5612;51.134;17.058;2022-11-21T04:39:00;0.10;1.00
2611;DHT22;5612;51.134;17.058;2022-11-21T04:41:31;0.10;99.90
2611;DHT22;5612;51.134;17.058;2022-11-21T04:43:59;0.10;99.90
2611;DHT22;5612;51.134;17.058;2022-11-21T04:46:28;0.00;99.90
2611;DHT22;5612;51.134;17.058;2022-11-21T04:48:57;0.00;57.30
2611;DHT22;5612;51.134;17.058;2022-11-21T04:51:26;0.00;99.90
2611;DHT22;5612;51.134;17.058;2022-11-21T04:53:54;0.10;99.90
2611;DHT22;5612;51.134;17.058;2022-11-21T04:56:23;0.10;97.60
2611;DHT22;5612;51.134;17.058;2022-11-21T04:58:53;0.30;1.00
2611;DHT22;5612;51.134;17.058;2022-11-21T05:01:22;0.30;99.90
2611;DHT22;5612;51.134;17.058;2022-11-21T05:03:51;0.30;99.90
2611;DHT22;5612;51.134;17.058;2022-11-21T05:06:20;0.40;99.90
2611;DHT22;5612;51.134;17.058;2022-11-21T05:08:49;0.50;1.00
2611;DHT22;5612;51.134;17.058;2022-11-21T05:11:20;0.40;1.00
2611;DHT22;5612;51.134;17.058;2022-11-21T05:14:07;0.40;56.80
2611;DHT22;5612;51.134;17.058;2022-11-21T05:16:37;0.50;1.00
2611;DHT22;5612;51.134;17.058;2022-11-21T05:19:05;0.60;99.90
2611;DHT22;5612;51.134;17.058;2022-11-21T05:21:34;0.70;91.90
2611;DHT22;5612;51.134;17.058;2022-11-21T05:24:03;0.60;1.00
2611;DHT22;5612;51.134;17.058;2022-11-21T05:26:34;0.60;39.00
2611;DHT22;5612;51.134;17.058;2022-11-21T05:29:04;0.60;1.00
2611;DHT22;5612;51.134;17.058;2022-11-21T05:31:34;0.70;1.00
2611;DHT22;5612;51.134;17.058;2022-11-21T05:34:03;0.70;1.00
2611;DHT22;5612;51.134;17.058;2022-11-21T05:36:32;0.70;99.90
2611;DHT22;5612;51.134;17.058;2022-11-21T05:39:00;0.70;99.90
2611;DHT22;5612;51.134;17.058;2022-11-21T05:41:29;0.60;1.00
2611;DHT22;5612;51.134;17.058;2022-11-21T05:43:58;0.70;99.90
2611;DHT22;5612;51.134;17.058;2022-11-21T05:46:26;0.60;99.90
2611;DHT22;5612;51.134;17.058;2022-11-21T05:48:56;0.50;99.90
2611;DHT22;5612;51.134;17.058;2022-11-21T05:51:25;0.60;1.00
2611;DHT22;5612;51.134;17.058;2022-11-21T05:53:54;0.60;99.90
2611;DHT22;5612;51.134;17.058;2022-11-21T05:56:22;0.60;99.90
2611;DHT22;5612;51.134;17.058;2022-11-21T05:58:53;0.50;99.90
2611;DHT22;5612;51.134;17.058;2022-11-21T06:01:23;0.40;1.00
2611;DHT22;5612;51.134;17.058;2022-11-21T06:04:07;0.40;1.00
2611;DHT22;5612;51.134;17.058;2022-11-21T06:06:36;0.40;1.00
2611;DHT22;5612;51.134;17.058;2022-11-21T06:09:05;0.30;99.90
2611;DHT22;5612;51.134;17.058;2022-11-21T06:11:34;0.30;99.90
2611;DHT22;5612;51.134;17.058;2022-11-21T06:14:02;0.40;99.90
2611;DHT22;5612;51.134;17.058;2022-11-21T06:16:31;0.40;99.90
2611;DHT22;5612;51.134;17.058;2022-11-21T06:18:59;0.50;94.10
2611;DHT22;5612;51.134;17.058;2022-11-21T06:21:31;0.50;1.00
2611;DHT22;5612;51.134;17.058;2022-11-21T06:24:03;0.50;99.90
2611;DHT22;5612;51.134;17.058;2022-11-21T06:26:32;0.60;99.90
2611;DHT22;5612;51.134;17.058;2022-11-21T06:29:01;0.50;1.00
2611;DHT22;5612;51.134;17.058;2022-11-21T06:31:30;0.50;1.00
2611;DHT22;5612;51.134;17.058;2022-11-21T06:33:58;0.50;99.90
2611;DHT22;5612;51.134;17.058;2022-11-21T06:36:27;0.40;99.90
2611;DHT22;5612;51.134;17.058;2022-11-21T06:38:57;0.50;99.90
2611;DHT22;5612;51.134;17.058;2022-11-21T06:41:26;0.60;8.50
2611;DHT22;5612;51.134;17.058;2022-11-21T06:43:58;0.70;1.00
2611;DHT22;5612;51.134;17.058;2022-11-21T06:46:29;0.70;99.90
2611;DHT22;5612;51.134;17.058;2022-11-21T06:49:03;0.60;1.00
2611;DHT22;5612;51.134;17.058;2022-11-21T06:51:32;0.80;99.90
2611;DHT22;5612;51.134;17.058;2022-11-21T06:54:03;0.90;99.90
2611;DHT22;5612;51.134;17.058;2022-11-21T06:56:31;0.80;99.90
2611;DHT22;5612;51.134;17.058;2022-11-21T06:59:00;0.90;99.90
2611;DHT22;5612;51.134;17.058;2022-11-21T07:01:29;1.00;99.90
2611;DHT22;5612;51.134;17.058;2022-11-21T07:03:59;1.00;99.90
2611;DHT22;5612;51.134;17.058;2022-11-21T07:06:29;1.00;99.90
2611;DHT22;5612;51.134;17.058;2022-11-21T07:08:58;1.00;99.90
2611;DHT22;5612;51.134;17.058;2022-11-21T07:11:48;1.00;99.90
2611;DHT22;5612;51.134;17.058;2022-11-21T07:14:17;0.90;1.00
2611;DHT22;5612;51.134;17.058;2022-11-21T07:16:45;0.90;1.00
2611;DHT22;5612;51.134;17.058;2022-11-21T07:19:13;1.10;99.90
2611;DHT22;5612;51.134;17.058;2022-11-21T07:21:42;1.10;99.90
2611;DHT22;5612;51.134;17.058;2022-11-21T07:24:11;1.20;34.10
2611;DHT22;5612;51.134;17.058;2022-11-21T07:26:40;1.20;99.90
2611;DHT22;5612;51.134;17.058;2022-11-21T07:29:10;1.20;99.90
2611;DHT22;5612;51.134;17.058;2022-11-21T07:31:39;1.20;99.90
2611;DHT22;5612;51.134;17.058;2022-11-21T07:34:08;1.20;99.90
2611;DHT22;5612;51.134;17.058;2022-11-21T07:36:37;1.30;99.90
2611;DHT22;5612;51.134;17.058;2022-11-21T07:39:06;1.40;99.90
2611;DHT22;5612;51.134;17.058;2022-11-21T07:41:35;1.50;14.30
2611;DHT22;5612;51.134;17.058;2022-11-21T07:44:04;1.50;1.00
2611;DHT22;5612;51.134;17.058;2022-11-21T07:46:34;1.60;44.50
2611;DHT22;5612;51.134;17.058;2022-11-21T07:49:03;1.80;1.00
2611;DHT22;5612;51.134;17.058;2022-11-21T07:51:32;1.90;1.00
2611;DHT22;5612;51.134;17.058;2022-11-21T07:54:01;2.00;1.00
2611;DHT22;5612;51.134;17.058;2022-11-21T07:56:30;2.10;99.90
2611;DHT22;5612;51.134;17.058;2022-11-21T07:58:59;2.20;99.90
2611;DHT22;5612;51.134;17.058;2022-11-21T08:01:28;2.20;99.90
2611;DHT22;5612;51.134;17.058;2022-11-21T08:03:59;2.20;99.90
2611;DHT22;5612;51.134;17.058;2022-11-21T08:06:28;2.30;99.90
2611;DHT22;5612;51.134;17.058;2022-11-21T08:08:57;2.40;99.90
2611;DHT22;5612;51.134;17.058;2022-11-21T08:11:26;2.40;99.90
2611;DHT22;5612;51.134;17.058;2022-11-21T08:13:54;2.40;99.90
2611;DHT22;5612;51.134;17.058;2022-11-21T08:16:24;2.30;99.90
2611;DHT22;5612;51.134;17.058;2022-11-21T08:18:54;2.40;99.90
2611;DHT22;5612;51.134;17.058;2022-11-21T08:21:24;2.40;99.90
2611;DHT22;5612;51.134;17.058;2022-11-21T08:23:54;2.50;99.90
2611;DHT22;5612;51.134;17.058;2022-11-21T08:26:23;2.60;99.90
2611;DHT22;5612;51.134;17.058;2022-11-21T08:28:52;2.70;99.90
2611;DHT22;5612;51.134;17.058;2022-11-21T08:31:26;2.80;99.90
2611;DHT22;5612;51.134;17.058;2022-11-21T08:33:55;2.70;99.90
2611;DHT22;5612;51.134;17.058;2022-11-21T08:36:26;2.80;99.90
2611;DHT22;5612;51.134;17.058;2022-11-21T08:38:56;2.80;99.90
2611;DHT22;5612;51.134;17.058;2022-11-21T08:41:25;2.80;99.90
2611;DHT22;5612;51.134;17.058;2022-11-21T08:44:11;3.00;99.90
2611;DHT22;5612;51.134;17.058;2022-11-21T08:46:41;3.00;99.90
2611;DHT22;5612;51.134;17.058;2022-11-21T08:49:09;2.90;1.00
2611;DHT22;5612;51.134;17.058;2022-11-21T08:51:40;3.00;99.90
2611;DHT22;5612;51.134;17.058;2022-11-21T08:54:09;3.00;1.00
2611;DHT22;5612;51.134;17.058;2022-11-21T08:56:37;3.00;1.00
2611;DHT22;5612;51.134;17.058;2022-11-21T08:59:06;3.10;1.00
2611;DHT22;5612;51.134;17.058;2022-11-21T09:01:35;3.10;13.40
2611;DHT22;5612;51.134;17.058;2022-11-21T09:04:04;3.20;1.00
2611;DHT22;5612;51.134;17.058;2022-11-21T09:06:33;3.30;1.00
2611;DHT22;5612;51.134;17.058;2022-11-21T09:09:04;3.30;99.90
2611;DHT22;5612;51.134;17.058;2022-11-21T09:11:36;3.30;1.00
2611;DHT22;5612;51.134;17.058;2022-11-21T09:14:04;3.40;1.00
2611;DHT22;5612;51.134;17.058;2022-11-21T09:16:50;3.40;1.00
2611;DHT22;5612;51.134;17.058;2022-11-21T09:19:37;3.50;1.00
2611;DHT22;5612;51.134;17.058;2022-11-21T09:22:05;3.40;99.90
2611;DHT22;5612;51.134;17.058;2022-11-21T09:24:35;3.50;99.90
2611;DHT22;5612;51.134;17.058;2022-11-21T09:27:04;3.50;99.90
2611;DHT22;5612;51.134;17.058;2022-11-21T09:29:32;3.50;99.90
2611;DHT22;5612;51.134;17.058;2022-11-21T09:32:01;3.60;99.90
2611;DHT22;5612;51.134;17.058;2022-11-21T09:34:30;3.60;33.10
2611;DHT22;5612;51.134;17.058;2022-11-21T09:36:59;3.70;1.00
2611;DHT22;5612;51.134;17.058;2022-11-21T09:39:28;3.70;1.00
2611;DHT22;5612;51.134;17.058;2022-11-21T09:42:12;3.70;1.00
2611;DHT22;5612;51.134;17.058;2022-11-21T09:45:02;3.80;1.00
2611;DHT22;5612;51.134;17.058;2022-11-21T09:47:34;3.90;1.00
2611;DHT22;5612;51.134;17.058;2022-11-21T09:50:12;3.90;99.90
2611;DHT22;5612;51.134;17.058;2022-11-21T09:52:50;4.00;99.90
2611;DHT22;5612;51.134;17.058;2022-11-21T09:55:27;4.00;99.90
2611;DHT22;5612;51.134;17.058;2022-11-21T09:58:02;4.10;99.90
2611;DHT22;5612;51.134;17.058;2022-11-21T10:00:32;4.10;99.90
2611;DHT22;5612;51.134;17.058;2022-11-21T10:03:03;4.20;99.90
2611;DHT22;5612;51.134;17.058;2022-11-21T10:05:37;4.30;99.90
2611;DHT22;5612;51.134;17.058;2022-11-21T10:08:17;4.50;1.00
2611;DHT22;5612;51.134;17.058;2022-11-21T10:10:54;4.70;99.90
2611;DHT22;5612;51.134;17.058;2022-11-21T10:13:38;4.80;99.90
2611;DHT22;5612;51.134;17.058;2022-11-21T10:16:18;4.90;99.90
2611;DHT22;5612;51.134;17.058;2022-11-21T10:22:12;5.40;41.20
2611;DHT22;5612;51.134;17.058;2022-11-21T10:24:53;5.80;99.90
2611;DHT22;5612;51.134;17.058;2022-11-21T10:27:31;5.80;1.00
2611;DHT22;5612;51.134;17.058;2022-11-21T10:30:05;5.80;1.30
2611;DHT22;5612;51.134;17.058;2022-11-21T10:32:37;5.80;26.00
2611;DHT22;5612;51.134;17.058;2022-11-21T10:35:14;5.80;38.10
2611;DHT22;5612;51.134;17.058;2022-11-21T10:37:47;5.90;95.20
2611;DHT22;5612;51.134;17.058;2022-11-21T10:40:31;6.00;99.90
2611;DHT22;5612;51.134;17.058;2022-11-21T10:43:05;6.30;1.00
2611;DHT22;5612;51.134;17.058;2022-11-21T10:45:52;6.50;1.00
2611;DHT22;5612;51.134;17.058;2022-11-21T10:48:21;6.50;99.90
2611;DHT22;5612;51.134;17.058;2022-11-21T10:51:04;6.40;1.00
2611;DHT22;5612;51.134;17.058;2022-11-21T10:53:35;6.40;1.00
2611;DHT22;5612;51.134;17.058;2022-11-21T10:56:22;6.30;1.00
2611;DHT22;5612;51.134;17.058;2022-11-21T10:58:54;6.30;1.00
2611;DHT22;5612;51.134;17.058;2022-11-21T11:01:27;6.30;1.00
2611;DHT22;5612;51.134;17.058;2022-11-21T11:04:16;6.20;1.00
2611;DHT22;5612;51.134;17.058;2022-11-21T11:06:55;6.30;1.00
2611;DHT22;5612;51.134;17.058;2022-11-21T11:09:28;6.40;1.00
2611;DHT22;5612;51.134;17.058;2022-11-21T11:12:27;6.30;1.00
2611;DHT22;5612;51.134;17.058;2022-11-21T11:15:20;6.20;1.00
2611;DHT22;5612;51.134;17.058;2022-11-21T11:17:55;6.40;1.00
2611;DHT22;5612;51.134;17.058;2022-11-21T11:20:34;6.40;1.00
2611;DHT22;5612;51.134;17.058;2022-11-21T11:23:22;6.40;1.00
2611;DHT22;5612;51.134;17.058;2022-11-21T11:25:52;6.50;1.00
2611;DHT22;5612;51.134;17.058;2022-11-21T11:28:22;6.60;1.00
2611;DHT22;5612;51.134;17.058;2022-11-21T11:30:52;6.70;1.00
2611;DHT22;5612;51.134;17.058;2022-11-21T11:33:34;6.80;1.00
2611;DHT22;5612;51.134;17.058;2022-11-21T11:36:25;6.80;99.90
2611;DHT22;5612;51.134;17.058;2022-11-21T11:38:59;6.90;99.90
2611;DHT22;5612;51.134;17.058;2022-11-21T11:41:51;7.00;99.90
2611;DHT22;5612;51.134;17.058;2022-11-21T11:44:53;7.00;99.90
2611;DHT22;5612;51.134;17.058;2022-11-21T11:47:50;7.10;99.90
2611;DHT22;5612;51.134;17.058;2022-11-21T11:50:25;7.10;99.90
2611;DHT22;5612;51.134;17.058;2022-11-21T11:53:01;7.10;99.90
2611;DHT22;5612;51.134;17.058;2022-11-21T11:55:35;7.20;99.90
2611;DHT22;5612;51.134;17.058;2022-11-21T11:58:10;7.20;99.90
2611;DHT22;5612;51.134;17.058;2022-11-21T12:00:45;7.30;99.90
2611;DHT22;5612;51.134;17.058;2022-11-21T12:03:18;7.30;99.90
2611;DHT22;5612;51.134;17.058;2022-11-21T12:05:59;7.20;99.90
2611;DHT22;5612;51.134;17.058;2022-11-21T12:08:45;7.30;99.90
2611;DHT22;5612;51.134;17.058;2022-11-21T12:11:23;7.20;99.90
2611;DHT22;5612;51.134;17.058;2022-11-21T12:14:31;6.70;99.90
2611;DHT22;5612;51.134;17.058;2022-11-21T12:17:25;6.50;1.00
2611;DHT22;5612;51.134;17.058;2022-11-21T12:19:59;6.30;1.00
2611;DHT22;5612;51.134;17.058;2022-11-21T12:22:31;6.20;15.30
2611;DHT22;5612;51.134;17.058;2022-11-21T12:25:00;6.10;24.20
2611;DHT22;5612;51.134;17.058;2022-11-21T12:27:30;6.00;14.00
2611;DHT22;5612;51.134;17.058;2022-11-21T12:30:17;5.80;99.90
2611;DHT22;5612;51.134;17.058;2022-11-21T12:32:54;5.70;99.90
2611;DHT22;5612;51.134;17.058;2022-11-21T12:35:46;5.50;1.00
2611;DHT22;5612;51.134;17.058;2022-11-21T12:38:38;5.50;1.00
2611;DHT22;5612;51.134;17.058;2022-11-21T12:41:18;5.40;1.00
2611;DHT22;5612;51.134;17.058;2022-11-21T12:44:18;5.30;4.70
2611;DHT22;5612;51.134;17.058;2022-11-21T12:46:59;5.20;99.90
2611;DHT22;5612;51.134;17.058;2022-11-21T12:49:38;5.10;1.00
2611;DHT22;5612;51.134;17.058;2022-11-21T12:52:31;5.10;99.90
2611;DHT22;5612;51.134;17.058;2022-11-21T12:55:28;5.10;99.90
2611;DHT22;5612;51.134;17.058;2022-11-21T12:58:16;4.90;1.00
2611;DHT22;5612;51.134;17.058;2022-11-21T13:01:02;4.80;1.00
2611;DHT22;5612;51.134;17.058;2022-11-21T13:03:46;4.80;99.90
2611;DHT22;5612;51.134;17.058;2022-11-21T13:06:22;4.80;1.00
2611;DHT22;5612;51.134;17.058;2022-11-21T13:08:54;4.70;46.10
2611;DHT22;5612;51.134;17.058;2022-11-21T13:11:45;4.60;99.90
2611;DHT22;5612;51.134;17.058;2022-11-21T13:14:40;4.60;99.90
2611;DHT22;5612;51.134;17.058;2022-11-21T13:17:28;4.80;99.90
2611;DHT22;5612;51.134;17.058;2022-11-21T13:20:11;4.90;73.00
2611;DHT22;5612;51.134;17.058;2022-11-21T13:22:56;4.70;1.00
2611;DHT22;5612;51.134;17.058;2022-11-21T13:25:41;4.50;99.90
2611;DHT22;5612;51.134;17.058;2022-11-21T13:28:35;4.50;99.90
2611;DHT22;5612;51.134;17.058;2022-11-21T13:31:29;4.60;1.00
2611;DHT22;5612;51.134;17.058;2022-11-21T13:33:59;4.80;1.00
2611;DHT22;5612;51.134;17.058;2022-11-21T13:36:37;4.70;54.70
2611;DHT22;5612;51.134;17.058;2022-11-21T13:39:36;4.80;99.90
2611;DHT22;5612;51.134;17.058;2022-11-21T13:42:12;4.80;99.90
2611;DHT22;5612;51.134;17.058;2022-11-21T13:45:36;4.70;99.90
2611;DHT22;5612;51.134;17.058;2022-11-21T13:48:16;4.80;1.00
2611;DHT22;5612;51.134;17.058;2022-11-21T13:51:14;4.70;1.00
2611;DHT22;5612;51.134;17.058;2022-11-21T13:56:58;4.20;99.90
2611;DHT22;5612;51.134;17.058;2022-11-21T13:59:50;4.30;99.90
2611;DHT22;5612;51.134;17.058;2022-11-21T14:05:47;4.30;99.90
2611;DHT22;5612;51.134;17.058;2022-11-21T14:08:19;4.30;99.90
2611;DHT22;5612;51.134;17.058;2022-11-21T14:10:50;4.30;99.90
2611;DHT22;5612;51.134;17.058;2022-11-21T14:13:24;4.30;99.90
2611;DHT22;5612;51.134;17.058;2022-11-21T14:16:07;4.20;99.90
2611;DHT22;5612;51.134;17.058;2022-11-21T14:18:42;4.10;99.90
2611;DHT22;5612;51.134;17.058;2022-11-21T14:21:18;4.00;99.90
2611;DHT22;5612;51.134;17.058;2022-11-21T14:23:48;3.80;99.90
2611;DHT22;5612;51.134;17.058;2022-11-21T14:26:19;3.70;99.90
2611;DHT22;5612;51.134;17.058;2022-11-21T14:28:48;3.60;99.90
2611;DHT22;5612;51.134;17.058;2022-11-21T14:31:18;3.40;1.00
2611;DHT22;5612;51.134;17.058;2022-11-21T14:33:48;3.40;99.90
2611;DHT22;5612;51.134;17.058;2022-11-21T14:36:25;3.30;1.00
2611;DHT22;5612;51.134;17.058;2022-11-21T14:38:57;3.20;1.00
2611;DHT22;5612;51.134;17.058;2022-11-21T14:41:49;3.00;1.00
2611;DHT22;5612;51.134;17.058;2022-11-21T14:44:20;2.90;1.00
2611;DHT22;5612;51.134;17.058;2022-11-21T14:47:01;2.90;1.00
2611;DHT22;5612;51.134;17.058;2022-11-21T14:49:32;2.80;1.00
2611;DHT22;5612;51.134;17.058;2022-11-21T14:52:07;2.70;1.00
2611;DHT22;5612;51.134;17.058;2022-11-21T14:54:45;2.70;1.00
2611;DHT22;5612;51.134;17.058;2022-11-21T14:57:37;2.70;1.00
2611;DHT22;5612;51.134;17.058;2022-11-21T15:00:13;2.60;1.00
2611;DHT22;5612;51.134;17.058;2022-11-21T15:03:17;2.60;99.90
2611;DHT22;5612;51.134;17.058;2022-11-21T15:05:49;2.50;1.00
2611;DHT22;5612;51.134;17.058;2022-11-21T15:08:32;2.50;1.00
2611;DHT22;5612;51.134;17.058;2022-11-21T15:11:23;2.50;1.00
2611;DHT22;5612;51.134;17.058;2022-11-21T15:13:58;2.50;1.00
2611;DHT22;5612;51.134;17.058;2022-11-21T15:16:46;2.50;1.00
2611;DHT22;5612;51.134;17.058;2022-11-21T15:19:20;2.50;99.90
2611;DHT22;5612;51.134;17.058;2022-11-21T15:21:53;2.50;99.90
2611;DHT22;5612;51.134;17.058;2022-11-21T15:24:31;2.40;99.90
2611;DHT22;5612;51.134;17.058;2022-11-21T15:27:22;2.40;99.90
2611;DHT22;5612;51.134;17.058;2022-11-21T15:30:06;2.30;1.00
2611;DHT22;5612;51.134;17.058;2022-11-21T15:33:06;2.20;1.00
2611;DHT22;5612;51.134;17.058;2022-11-21T15:35:53;2.10;1.00
2611;DHT22;5612;51.134;17.058;2022-11-21T15:38:40;2.00;15.70
2611;DHT22;5612;51.134;17.058;2022-11-21T15:41:24;2.10;10.80
2611;DHT22;5612;51.134;17.058;2022-11-21T15:43:54;2.10;99.90
2611;DHT22;5612;51.134;17.058;2022-11-21T15:46:25;2.20;99.90
2611;DHT22;5612;51.134;17.058;2022-11-21T15:48:56;2.20;1.00
2611;DHT22;5612;51.134;17.058;2022-11-21T15:51:26;2.10;12.60
2611;DHT22;5612;51.134;17.058;2022-11-21T15:54:20;2.10;99.90
2611;DHT22;5612;51.134;17.058;2022-11-21T15:56:49;1.90;1.00
2611;DHT22;5612;51.134;17.058;2022-11-21T15:59:18;1.80;99.90
2611;DHT22;5612;51.134;17.058;2022-11-21T16:01:47;1.90;99.90
2611;DHT22;5612;51.134;17.058;2022-11-21T16:04:16;1.70;99.90
2611;DHT22;5612;51.134;17.058;2022-11-21T16:06:51;1.70;99.90
2611;DHT22;5612;51.134;17.058;2022-11-21T16:09:22;1.70;99.90
2611;DHT22;5612;51.134;17.058;2022-11-21T16:11:51;1.70;99.90
2611;DHT22;5612;51.134;17.058;2022-11-21T16:14:20;1.70;1.00
2611;DHT22;5612;51.134;17.058;2022-11-21T16:16:49;1.70;99.90
2611;DHT22;5612;51.134;17.058;2022-11-21T16:19:17;1.60;1.00
2611;DHT22;5612;51.134;17.058;2022-11-21T16:21:46;1.50;99.90
2611;DHT22;5612;51.134;17.058;2022-11-21T16:24:15;1.50;99.90
2611;DHT22;5612;51.134;17.058;2022-11-21T16:26:45;1.60;99.90
2611;DHT22;5612;51.134;17.058;2022-11-21T16:29:15;1.60;99.90
2611;DHT22;5612;51.134;17.058;2022-11-21T16:31:44;1.60;99.90
2611;DHT22;5612;51.134;17.058;2022-11-21T16:34:17;1.60;99.90
2611;DHT22;5612;51.134;17.058;2022-11-21T16:36:46;1.80;1.00
2611;DHT22;5612;51.134;17.058;2022-11-21T16:39:16;1.70;99.90
2611;DHT22;5612;51.134;17.058;2022-11-21T16:41:47;1.60;99.90
2611;DHT22;5612;51.134;17.058;2022-11-21T16:44:15;1.50;1.00
2611;DHT22;5612;51.134;17.058;2022-11-21T16:46:45;1.60;1.00
2611;DHT22;5612;51.134;17.058;2022-11-21T16:49:15;1.60;1.00
2611;DHT22;5612;51.134;17.058;2022-11-21T16:51:45;1.70;99.90
2611;DHT22;5612;51.134;17.058;2022-11-21T16:54:14;1.70;99.90
2611;DHT22;5612;51.134;17.058;2022-11-21T16:56:43;1.70;99.90